メインページ
METAR-TAF:

METAR-TAF

空港 :

ノヴォシビルスク, ロシア

トルマチョーヴォ空港

緯度: 55-01N, 経度: 082-38E, 海抜: 111m

現時点の気象観測

当レポートは35分前の09:00(UTC)に作成
西/南西の風 23kt
気温 19°C
湿度 28%
気圧 1014 hPa
視程10km以上
1,500メートル以下は雲なし、積乱雲なし

METAR: UNNT 290900Z 24012MPS CAVOK 19/M00 Q1014 R25/090070 R16/090070 NOSIG RMK QFE751/1001

時間: 16:35 (09:35 UTC)

予報

当レポートは1時間35分前の08:00(UTC)に作成
予報は29日の 09時(UTC)から 30日の 09時(UTC)まで有効
西/南西の風 21kt、最大37ktの突風を伴う
視程10km以上
1,500メートル以下は雲なし、積乱雲なし
29日の 1300時(UTC)から
北/北西の風 17kt、最大29ktの突風を伴う
視程10km以上
高度2000ftの千切れ雲あり, 積乱雲.
29日の 13時(UTC)から 30日の 06時(UTC)まで一時的に
視程: 3000m
高度1500ftの千切れ雲あり, 積乱雲.
弱いにわか雨
29日の 17時(UTC)から 29日の 19時(UTC)まで徐々に
西の風 6kt、最大16ktの突風を伴う

TAF: UNNT 290800Z 2909/3009 25011G19MPS CAVOK FM291300 34009G15MPS 9999 BKN020CB TEMPO 2913/3006 3000 -SHRA BKN015CB BECMG 2917/2919 27003G08MPS

4,000以上の空港の気象観測と天気予報(METAR報とTAF報)

利用可能な観測所は地図上に黄色い丸と赤い丸で示す。

丸の上にカーソルを重ねると観測所名を参照できる。

次にクリックすると気象観測と天気予報を参照できる。

マップの切り替え:黒色「×」印の緑ボタンをクリックして拡大、「-」印の緑ボタンをクリックして縮小、緑色の三角印をクリックして隣りの地図に切り替え


METAR-TAF: